Time;durP1;ratioP1;P1;durP2;ratioP2;P2;SDS_P1;SDS_P2;PMS_P1;PMS_P2;Temp;Humidity;BMP_temperature;BMP_pressure;BME280_temperature;BME280_humidity;BME280_pressure;Samples;Min_cycle;Max_cycle;Signal;HPM_P1;HPM_P2
2022/10/12 00:00:01;;;;;;;;;;;;;;;4.08;100.00;101289.34;3057516;19;20333;-55
2022/10/12 00:01:15;;;;;;;;;;;;;;;4.08;100.00;101285.81;3057470;19;20366;-54
2022/10/12 00:02:17;;;;;;;;;;;;;;;4.08;100.00;101285.81;3057312;19;19923;-52
2022/10/12 00:03:21;;;;;;;;;;;;;;;4.07;100.00;101286.72;3057068;19;19930;-54
2022/10/12 00:04:23;;;;;;;;;;;;;;;4.07;100.00;101292.00;3057237;19;20254;-52
2022/10/12 00:05:28;;;;;;;;;;;;;;;4.05;100.00;101292.03;3057704;19;19923;-53
2022/10/12 00:06:30;;;;;;;;;;;;;;;4.05;100.00;101289.41;3056594;19;19934;-53
2022/10/12 00:07:34;;;;;;;;;;;;;;;4.06;100.00;101290.28;3056749;19;20154;-52
2022/10/12 00:08:37;;;;;;;;;;;;;;;4.06;100.00;101293.78;3057450;19;19925;-55
2022/10/12 00:09:41;;;;;;;;;;;;;;;4.06;100.00;101290.28;3057393;19;19991;-52
2022/10/12 00:10:43;;;;;;;;;;;;;;;4.06;100.00;101291.13;3056459;19;19907;-53
2022/10/12 00:11:48;;;;;;;;;;;;;;;4.05;100.00;101288.53;3056302;19;19939;-53
2022/10/12 00:12:49;;;;;;;;;;;;;;;4.04;100.00;101292.06;3057220;19;19946;-52
2022/10/12 00:13:54;;;;;;;;;;;;;;;4.02;100.00;101289.44;3057470;19;19914;-55
2022/10/12 00:14:56;;;;;;;;;;;;;;;4.02;100.00;101285.94;3057456;19;19951;-54
2022/10/12 00:16:05;;;;;;;;;;;;;;;4.00;100.00;101285.97;3057303;19;19954;-53
2022/10/12 00:17:07;;;;;;;;;;;;;;;3.97;100.00;101286.94;3057169;19;19943;-53
2022/10/12 00:18:11;;;;;;;;;;;;;;;3.96;100.00;101287.84;3057219;19;19954;-55
2022/10/12 00:19:13;;;;;;;;;;;;;;;3.96;100.00;101289.59;3057012;19;19923;-54
2022/10/12 00:20:17;;;;;;;;;;;;;;;3.95;100.00;101291.38;3057167;19;19919;-53
2022/10/12 00:21:19;;;;;;;;;;;;;;;3.95;100.00;101294.03;3057222;19;19919;-53
2022/10/12 00:22:24;;;;;;;;;;;;;;;3.94;100.00;101296.69;3056519;19;20294;-53
2022/10/12 00:23:26;;;;;;;;;;;;;;;3.94;100.00;101291.41;3056010;19;20318;-52
2022/10/12 00:24:30;;;;;;;;;;;;;;;3.93;100.00;101290.53;3057229;19;19950;-53
2022/10/12 00:25:34;;;;;;;;;;;;;;;3.93;100.00;101290.53;3057108;19;19933;-51
2022/10/12 00:26:39;;;;;;;;;;;;;;;3.91;100.00;101294.97;3057177;19;19923;-53
2022/10/12 00:27:41;;;;;;;;;;;;;;;3.91;100.00;101288.81;3056396;19;19946;-52
2022/10/12 00:28:45;;;;;;;;;;;;;;;3.91;100.00;101292.34;3055997;19;19954;-52
2022/10/12 00:29:47;;;;;;;;;;;;;;;3.92;100.00;101291.44;3057103;19;19960;-54
2022/10/12 00:30:52;;;;;;;;;;;;;;;3.93;100.00;101294.94;3056364;19;19937;-54
2022/10/12 00:31:56;;;;;;;;;;;;;;;3.92;100.00;101288.78;3055009;19;19926;-54
2022/10/12 00:32:58;;;;;;;;;;;;;;;3.92;100.00;101291.44;3057528;19;19922;-52
2022/10/12 00:34:03;;;;;;;;;;;;;;;3.92;100.00;101295.84;3056533;19;20326;-52
2022/10/12 00:35:05;;;;;;;;;;;;;;;3.91;100.00;101297.63;3056525;19;19914;-54
2022/10/12 00:36:15;;;;;;;;;;;;;;;3.91;100.00;101294.97;3055908;19;20012;-52
2022/10/12 00:37:19;;;;;;;;;;;;;;;3.90;100.00;101301.16;3057339;19;19915;-54
2022/10/12 00:38:21;;;;;;;;;;;;;;;3.92;100.00;101293.19;3056894;19;19919;-52
2022/10/12 00:39:26;;;;;;;;;;;;;;;3.92;100.00;101293.19;3057295;19;20322;-52
2022/10/12 00:40:27;;;;;;;;;;;;;;;3.92;100.00;101298.47;3056880;19;19942;-52
2022/10/12 00:41:34;;;;;;;;;;;;;;;3.91;100.00;101291.47;3056723;19;19923;-52
2022/10/12 00:42:36;;;;;;;;;;;;;;;3.90;100.00;101293.22;3056687;19;19929;-53
2022/10/12 00:43:41;;;;;;;;;;;;;;;3.90;100.00;101290.59;3056658;19;19926;-52
2022/10/12 00:44:47;;;;;;;;;;;;;;;3.90;100.00;101295.00;3056315;19;19923;-54
2022/10/12 00:45:51;;;;;;;;;;;;;;;3.89;100.00;101294.13;3056881;19;19918;-52
2022/10/12 00:46:53;;;;;;;;;;;;;;;3.88;100.00;101297.66;3055578;19;19922;-54
2022/10/12 00:47:58;;;;;;;;;;;;;;;3.86;100.00;101291.59;3055803;19;20252;-52
2022/10/12 00:49:00;;;;;;;;;;;;;;;3.86;100.00;101299.50;3055110;19;19918;-54
2022/10/12 00:50:07;;;;;;;;;;;;;;;3.86;100.00;101299.50;3056396;19;19923;-53
2022/10/12 00:51:09;;;;;;;;;;;;;;;3.86;100.00;101299.50;3056577;19;19946;-52
2022/10/12 00:52:14;;;;;;;;;;;;;;;3.87;100.00;101295.06;3054954;19;19930;-54
2022/10/12 00:53:16;;;;;;;;;;;;;;;3.88;100.00;101302.94;3057445;19;19922;-52
2022/10/12 00:54:23;;;;;;;;;;;;;;;3.88;100.00;101297.66;3055425;19;19979;-54
2022/10/12 00:55:25;;;;;;;;;;;;;;;3.88;100.00;101302.94;3055942;19;19980;-53
2022/10/12 00:56:29;;;;;;;;;;;;;;;3.89;100.00;101298.53;3055577;19;19995;-54
2022/10/12 00:57:31;;;;;;;;;;;;;;;3.88;100.00;101302.94;3056164;19;19915;-55
2022/10/12 00:58:36;;;;;;;;;;;;;;;3.88;100.00;101300.31;3055736;19;19994;-52
2022/10/12 00:59:57;;;;;;;;;;;;;;;3.89;100.00;101309.09;3056255;19;19937;-54
2022/10/12 01:01:00;;;;;;;;;;;;;;;3.89;100.00;101304.69;3056047;19;19919;-52
2022/10/12 01:02:05;;;;;;;;;;;;;;;3.90;100.00;101311.72;3055721;19;20362;-53
2022/10/12 01:03:10;;;;;;;;;;;;;;;3.90;100.00;101310.84;3055586;19;19950;-52
2022/10/12 01:04:11;;;;;;;;;;;;;;;3.90;100.00;101311.72;3056777;19;19954;-53
2022/10/12 01:05:16;;;;;;;;;;;;;;;3.90;100.00;101310.84;3055246;19;19945;-52
2022/10/12 01:06:18;;;;;;;;;;;;;;;3.90;100.00;101305.56;3055724;19;20423;-53
2022/10/12 01:07:22;;;;;;;;;;;;;;;3.90;100.00;101311.72;3055728;19;19922;-52
2022/10/12 01:08:24;;;;;;;;;;;;;;;3.90;100.00;101297.63;3056840;19;19922;-52
2022/10/12 01:09:29;;;;;;;;;;;;;;;3.90;100.00;101314.34;3055327;19;19983;-52
2022/10/12 01:10:32;;;;;;;;;;;;;;;3.91;100.00;101308.19;3055770;19;19946;-52
2022/10/12 01:11:36;;;;;;;;;;;;;;;3.92;100.00;101309.03;3055190;19;19919;-54
2022/10/12 01:12:38;;;;;;;;;;;;;;;3.91;100.00;101313.47;3055542;19;20023;-54
2022/10/12 01:13:43;;;;;;;;;;;;;;;3.91;100.00;101308.19;3055382;19;19995;-53
2022/10/12 01:14:45;;;;;;;;;;;;;;;3.91;100.00;101313.47;3055601;19;19915;-52
2022/10/12 01:16:15;;;;;;;;;;;;;;;3.90;100.00;101311.72;3056254;19;19919;-54
2022/10/12 01:17:20;;;;;;;;;;;;;;;3.89;100.00;101306.47;3053984;19;19915;-54
2022/10/12 01:18:26;;;;;;;;;;;;;;;3.90;100.00;101311.72;3056388;19;19918;-52
2022/10/12 01:19:31;;;;;;;;;;;;;;;3.91;100.00;101307.31;3055215;19;19911;-54
2022/10/12 01:20:54;;;;;;;;;;;;;;;3.91;100.00;101313.47;3055921;19;19922;-54
2022/10/12 01:22:00;;;;;;;;;;;;;;;3.92;100.00;101304.63;3056114;19;20046;-52
2022/10/12 01:23:19;;;;;;;;;;;;;;;3.92;100.00;101309.91;3055442;19;19942;-53
2022/10/12 01:24:37;;;;;;;;;;;;;;;3.93;100.00;101311.66;3055456;19;19919;-54
2022/10/12 01:25:44;;;;;;;;;;;;;;;3.95;100.00;101309.00;3055305;19;20625;-54
2022/10/12 01:26:55;;;;;;;;;;;;;;;3.95;100.00;101312.50;3055327;19;19943;-54
2022/10/12 01:28:12;;;;;;;;;;;;;;;3.96;100.00;101306.31;3056211;19;19923;-53
2022/10/12 01:29:29;;;;;;;;;;;;;;;3.96;100.00;101311.59;3056437;19;19927;-53
2022/10/12 01:30:40;;;;;;;;;;;;;;;3.96;100.00;101306.31;3055995;19;19927;-53
2022/10/12 01:32:17;;;;;;;;;;;;;;;3.97;100.00;101302.78;3054418;19;20345;-52
2022/10/12 01:33:34;;;;;;;;;;;;;;;3.97;100.00;101304.56;3054633;19;19925;-52
2022/10/12 01:34:38;;;;;;;;;;;;;;;3.95;100.00;101309.84;3054385;19;19991;-53
2022/10/12 01:35:42;;;;;;;;;;;;;;;3.96;100.00;101306.31;3055049;19;19923;-54
2022/10/12 01:36:45;;;;;;;;;;;;;;;3.95;100.00;101307.22;3056227;19;19943;-54
2022/10/12 01:38:09;;;;;;;;;;;;;;;3.96;100.00;101308.09;3055225;19;19934;-53
2022/10/12 01:39:15;;;;;;;;;;;;;;;3.95;100.00;101309.00;3055020;19;20326;-53
2022/10/12 01:40:28;;;;;;;;;;;;;;;3.94;100.00;101302.84;3054220;19;20017;-54
2022/10/12 01:41:42;;;;;;;;;;;;;;;3.94;100.00;101309.88;3055158;19;19915;-52
2022/10/12 01:42:47;;;;;;;;;;;;;;;3.93;100.00;101311.66;3054837;19;19932;-52
2022/10/12 01:43:49;;;;;;;;;;;;;;;3.92;100.00;101320.47;3054820;19;19946;-54
2022/10/12 01:45:02;;;;;;;;;;;;;;;3.91;100.00;101315.22;3055753;19;20565;-53
2022/10/12 01:46:07;;;;;;;;;;;;;;;3.90;100.00;101317.00;3056315;19;20031;-53
2022/10/12 01:47:11;;;;;;;;;;;;;;;3.88;100.00;101313.50;3055876;19;19941;-54
2022/10/12 01:48:13;;;;;;;;;;;;;;;3.88;100.00;101318.78;3056365;19;19932;-52
2022/10/12 01:49:19;;;;;;;;;;;;;;;3.87;100.00;101311.78;3054695;19;19919;-53
2022/10/12 01:50:24;;;;;;;;;;;;;;;3.88;100.00;101313.50;3055003;19;19976;-54
2022/10/12 01:51:26;;;;;;;;;;;;;;;3.86;100.00;101310.06;3055244;19;19927;-52
2022/10/12 01:52:37;;;;;;;;;;;;;;;3.86;100.00;101320.63;3055045;19;19919;-52
2022/10/12 01:53:58;;;;;;;;;;;;;;;3.87;100.00;101317.06;3055239;19;20277;-52
2022/10/12 01:55:09;;;;;;;;;;;;;;;3.86;100.00;101322.41;3055092;19;20006;-52
2022/10/12 01:56:15;;;;;;;;;;;;;;;3.85;100.00;101313.59;3055251;19;20398;-51
2022/10/12 01:57:19;;;;;;;;;;;;;;;3.85;100.00;101321.53;3054937;19;19923;-52
2022/10/12 01:58:25;;;;;;;;;;;;;;;3.85;100.00;101320.66;3055286;19;19923;-53
2022/10/12 01:59:32;;;;;;;;;;;;;;;3.84;100.00;101317.13;3054889;19;19923;-53
2022/10/12 02:00:41;;;;;;;;;;;;;;;3.83;100.00;101323.31;3054915;19;19926;-54
2022/10/12 02:01:49;;;;;;;;;;;;;;;3.84;100.00;101313.63;3054933;19;19919;-51
2022/10/12 02:02:56;;;;;;;;;;;;;;;3.83;100.00;101318.03;3054857;19;19927;-54
2022/10/12 02:04:11;;;;;;;;;;;;;;;3.83;100.00;101320.69;3055279;19;19915;-53
2022/10/12 02:05:31;;;;;;;;;;;;;;;3.82;100.00;101316.28;3054536;19;19918;-54
2022/10/12 02:06:42;;;;;;;;;;;;;;;3.80;100.00;101319.88;3055169;19;20565;-53
2022/10/12 02:07:49;;;;;;;;;;;;;;;3.79;100.00;101326.91;3054843;19;19986;-54
2022/10/12 02:08:58;;;;;;;;;;;;;;;3.78;100.00;101322.53;3054966;19;19915;-53
2022/10/12 02:09:59;;;;;;;;;;;;;;;3.76;100.00;101321.69;3054834;19;19918;-53
2022/10/12 02:11:13;;;;;;;;;;;;;;;3.76;100.00;101323.44;3055325;19;20037;-53
2022/10/12 02:12:16;;;;;;;;;;;;;;;3.74;100.00;101331.44;3054781;19;20355;-53
2022/10/12 02:13:21;;;;;;;;;;;;;;;3.73;100.00;101329.69;3054606;19;19915;-52
2022/10/12 02:14:25;;;;;;;;;;;;;;;3.72;100.00;101327.06;3054788;19;19919;-52
2022/10/12 02:15:30;;;;;;;;;;;;;;;3.72;100.00;101333.22;3054359;19;20337;-54
2022/10/12 02:16:33;;;;;;;;;;;;;;;3.71;100.00;101339.41;3054778;19;19927;-53
2022/10/12 02:17:37;;;;;;;;;;;;;;;3.71;100.00;101335.91;3054766;19;19926;-54
2022/10/12 02:18:42;;;;;;;;;;;;;;;3.70;100.00;101340.31;3054860;19;19958;-54
2022/10/12 02:19:47;;;;;;;;;;;;;;;3.68;100.00;101331.53;3054528;19;20689;-54
2022/10/12 02:20:50;;;;;;;;;;;;;;;3.67;100.00;101340.34;3054604;19;19919;-54
2022/10/12 02:21:56;;;;;;;;;;;;;;;3.65;100.00;101334.22;3054679;19;19943;-53
2022/10/12 02:22:57;;;;;;;;;;;;;;;3.65;100.00;101325.44;3055118;19;20322;-52
2022/10/12 02:24:03;;;;;;;;;;;;;;;3.64;100.00;101329.84;3054492;19;20031;-53
2022/10/12 02:25:05;;;;;;;;;;;;;;;3.63;100.00;101322.81;3056262;19;19926;-53
2022/10/12 02:26:10;;;;;;;;;;;;;;;3.62;100.00;101332.50;3054420;19;19927;-52
2022/10/12 02:27:12;;;;;;;;;;;;;;;3.62;100.00;101329.03;3054660;19;19923;-52
2022/10/12 02:28:17;;;;;;;;;;;;;;;3.62;100.00;101326.41;3054509;19;19922;-54
2022/10/12 02:29:21;;;;;;;;;;;;;;;3.60;100.00;101328.19;3054436;19;19911;-54
2022/10/12 02:30:25;;;;;;;;;;;;;;;3.61;100.00;101329.94;3054365;19;19929;-52
2022/10/12 02:31:31;;;;;;;;;;;;;;;3.60;100.00;101325.56;3054199;19;19927;-52
2022/10/12 02:32:40;;;;;;;;;;;;;;;3.61;100.00;101324.66;3054604;19;20002;-54
2022/10/12 02:33:42;;;;;;;;;;;;;;;3.61;100.00;101329.94;3053910;19;20662;-53
2022/10/12 02:34:57;;;;;;;;;;;;;;;3.60;100.00;101323.78;3054430;19;19926;-54
2022/10/12 02:36:04;;;;;;;;;;;;;;;3.59;100.00;101337.88;3054439;19;20345;-53
2022/10/12 02:37:14;;;;;;;;;;;;;;;3.59;100.00;101335.25;3054403;19;20329;-52
2022/10/12 02:38:19;;;;;;;;;;;;;;;3.60;100.00;101333.47;3054857;19;19939;-53
2022/10/12 02:39:30;;;;;;;;;;;;;;;3.59;100.00;101332.59;3054417;19;19947;-54
2022/10/12 02:40:47;;;;;;;;;;;;;;;3.59;100.00;101337.00;3055338;19;20338;-52
2022/10/12 02:41:51;;;;;;;;;;;;;;;3.58;100.00;101335.25;3055752;19;19947;-52
2022/10/12 02:42:55;;;;;;;;;;;;;;;3.59;100.00;101331.72;3053662;19;19942;-53
2022/10/12 02:44:14;;;;;;;;;;;;;;;3.58;100.00;101337.91;3054607;19;19914;-54
2022/10/12 02:45:16;;;;;;;;;;;;;;;3.58;100.00;101335.25;3054494;19;19922;-53
2022/10/12 02:46:20;;;;;;;;;;;;;;;3.58;100.00;101345.81;3054914;19;19967;-52
2022/10/12 02:47:22;;;;;;;;;;;;;;;3.59;100.00;101332.59;3054534;19;19923;-52
2022/10/12 02:48:26;;;;;;;;;;;;;;;3.59;100.00;101337.88;3054635;19;19942;-53
2022/10/12 02:49:28;;;;;;;;;;;;;;;3.59;100.00;101337.00;3054592;19;19934;-53
2022/10/12 02:50:33;;;;;;;;;;;;;;;3.59;100.00;101344.94;3054103;19;19927;-55
2022/10/12 02:51:34;;;;;;;;;;;;;;;3.57;100.00;101337.03;3054226;19;19919;-55
2022/10/12 02:52:39;;;;;;;;;;;;;;;3.57;100.00;101344.06;3057065;19;19986;-54
2022/10/12 02:53:41;;;;;;;;;;;;;;;3.56;100.00;101342.34;3056432;19;19922;-52
2022/10/12 02:54:45;;;;;;;;;;;;;;;3.55;100.00;101345.88;3057690;19;19939;-53
2022/10/12 02:55:51;;;;;;;;;;;;;;;3.55;100.00;101341.47;3057308;19;19923;-53
2022/10/12 02:56:55;;;;;;;;;;;;;;;3.54;100.00;101336.22;3057396;19;20581;-55
2022/10/12 02:57:57;;;;;;;;;;;;;;;3.54;100.00;101339.72;3058190;19;20035;-52
2022/10/12 02:59:01;;;;;;;;;;;;;;;3.54;100.00;101338.84;3057981;19;20307;-52
2022/10/12 03:00:03;;;;;;;;;;;;;;;3.53;100.00;101337.09;3058252;19;19926;-51
2022/10/12 03:01:08;;;;;;;;;;;;;;;3.54;100.00;101333.56;3058393;19;19970;-54
2022/10/12 03:02:10;;;;;;;;;;;;;;;3.54;100.00;101333.56;3057763;19;20342;-52
2022/10/12 03:03:14;;;;;;;;;;;;;;;3.55;100.00;101335.31;3058134;19;19922;-53
2022/10/12 03:04:16;;;;;;;;;;;;;;;3.56;100.00;101334.41;3057975;19;19919;-52
2022/10/12 03:05:20;;;;;;;;;;;;;;;3.55;100.00;101330.03;3058309;19;19923;-54
2022/10/12 03:06:22;;;;;;;;;;;;;;;3.56;100.00;101326.50;3057981;19;20011;-54
2022/10/12 03:07:27;;;;;;;;;;;;;;;3.57;100.00;101329.13;3058249;19;19919;-52
2022/10/12 03:08:29;;;;;;;;;;;;;;;3.57;100.00;101323.84;3058028;19;19946;-53
2022/10/12 03:09:33;;;;;;;;;;;;;;;3.59;100.00;101322.03;3058040;19;19942;-52
2022/10/12 03:10:35;;;;;;;;;;;;;;;3.59;100.00;101321.16;3057955;19;19915;-52
2022/10/12 03:11:42;;;;;;;;;;;;;;;3.60;100.00;101328.19;3058162;19;19942;-54
2022/10/12 03:12:44;;;;;;;;;;;;;;;3.60;100.00;101317.63;3057682;19;19927;-55
2022/10/12 03:13:54;;;;;;;;;;;;;;;3.60;100.00;101321.16;3057334;19;19923;-52
2022/10/12 03:14:55;;;;;;;;;;;;;;;3.59;100.00;101322.03;3058140;19;19919;-52
2022/10/12 03:16:04;;;;;;;;;;;;;;;3.60;100.00;101328.19;3057853;19;19971;-52
2022/10/12 03:17:06;;;;;;;;;;;;;;;3.59;100.00;101321.16;3057948;19;19923;-53
2022/10/12 03:18:10;;;;;;;;;;;;;;;3.58;100.00;101324.72;3057886;19;19918;-52
2022/10/12 03:19:12;;;;;;;;;;;;;;;3.57;100.00;101321.19;3058159;19;19933;-53
2022/10/12 03:20:17;;;;;;;;;;;;;;;3.57;100.00;101315.06;3057834;19;19975;-53
2022/10/12 03:21:18;;;;;;;;;;;;;;;3.57;100.00;101318.56;3057862;19;20254;-54
2022/10/12 03:22:23;;;;;;;;;;;;;;;3.58;100.00;101324.72;3057517;19;20756;-53
2022/10/12 03:23:25;;;;;;;;;;;;;;;3.58;100.00;101315.03;3058101;19;19919;-53
2022/10/12 03:24:29;;;;;;;;;;;;;;;3.59;100.00;101326.44;3057513;19;19919;-51
2022/10/12 03:25:32;;;;;;;;;;;;;;;3.60;100.00;101320.28;3056826;19;19926;-55
2022/10/12 03:26:36;;;;;;;;;;;;;;;3.61;100.00;101319.38;3057230;19;20382;-52
2022/10/12 03:27:38;;;;;;;;;;;;;;;3.61;100.00;101319.38;3057548;19;19942;-54
2022/10/12 03:28:43;;;;;;;;;;;;;;;3.63;100.00;101317.56;3057830;19;19918;-53
2022/10/12 03:29:45;;;;;;;;;;;;;;;3.65;100.00;101323.66;3057938;19;19915;-52
2022/10/12 03:30:49;;;;;;;;;;;;;;;3.66;100.00;101317.50;3056735;19;19941;-52
2022/10/12 03:31:51;;;;;;;;;;;;;;;3.67;100.00;101315.72;3056210;19;19935;-52
2022/10/12 03:32:55;;;;;;;;;;;;;;;3.68;100.00;101320.97;3057507;19;20027;-54
2022/10/12 03:33:57;;;;;;;;;;;;;;;3.67;100.00;101319.25;3057380;19;19930;-52
2022/10/12 03:35:02;;;;;;;;;;;;;;;3.67;100.00;101324.53;3057625;19;19951;-51
2022/10/12 03:36:04;;;;;;;;;;;;;;;3.66;100.00;101320.13;3057530;19;19919;-52
2022/10/12 03:37:09;;;;;;;;;;;;;;;3.67;100.00;101323.66;3057639;19;19923;-53
2022/10/12 03:38:11;;;;;;;;;;;;;;;3.65;100.00;101321.03;3058101;19;20386;-54
2022/10/12 03:39:15;;;;;;;;;;;;;;;3.65;100.00;101326.31;3057262;19;19922;-52
2022/10/12 03:40:17;;;;;;;;;;;;;;;3.64;100.00;101319.28;3058037;19;20040;-54
2022/10/12 03:41:21;;;;;;;;;;;;;;;3.64;100.00;101314.00;3057273;19;20269;-52
2022/10/12 03:42:23;;;;;;;;;;;;;;;3.65;100.00;101326.31;3057043;19;19939;-53
2022/10/12 03:43:27;;;;;;;;;;;;;;;3.63;100.00;101321.06;3057506;19;19926;-53
2022/10/12 03:44:29;;;;;;;;;;;;;;;3.62;100.00;101318.47;3057297;19;19995;-53
2022/10/12 03:45:34;;;;;;;;;;;;;;;3.62;100.00;101319.31;3057625;19;19978;-54
2022/10/12 03:46:36;;;;;;;;;;;;;;;3.62;100.00;101321.13;3057362;19;19919;-52
2022/10/12 03:47:40;;;;;;;;;;;;;;;3.61;100.00;101329.94;3057573;19;19930;-54
2022/10/12 03:48:42;;;;;;;;;;;;;;;3.52;100.00;101314.25;3057994;19;20011;-54
2022/10/12 03:49:46;;;;;;;;;;;;;;;3.58;100.00;101324.72;3057280;19;19914;-52
2022/10/12 03:50:49;;;;;;;;;;;;;;;3.58;100.00;101324.72;3058962;19;20047;-53
2022/10/12 03:51:53;;;;;;;;;;;;;;;3.58;100.00;101320.31;3057256;19;19919;-51
2022/10/12 03:52:55;;;;;;;;;;;;;;;3.56;100.00;101316.81;3057233;19;19946;-52
2022/10/12 03:53:59;;;;;;;;;;;;;;;3.57;100.00;101325.59;3056892;19;20657;-54
2022/10/12 03:55:01;;;;;;;;;;;;;;;3.55;100.00;101330.03;3057787;19;19918;-52
2022/10/12 03:56:05;;;;;;;;;;;;;;;3.54;100.00;101333.56;3057444;19;19946;-52
2022/10/12 03:57:07;;;;;;;;;;;;;;;3.44;100.00;101317.06;3057961;19;20317;-53
2022/10/12 03:58:12;;;;;;;;;;;;;;;3.51;100.00;101333.63;3058605;19;19954;-53
2022/10/12 03:59:13;;;;;;;;;;;;;;;3.50;100.00;101331.91;3057669;19;19919;-52
2022/10/12 04:00:18;;;;;;;;;;;;;;;3.50;100.00;101338.03;3057158;19;19921;-55
2022/10/12 04:01:20;;;;;;;;;;;;;;;3.48;100.00;101333.72;3057694;19;20342;-54
2022/10/12 04:02:24;;;;;;;;;;;;;;;3.48;100.00;101338.97;3056791;19;19929;-53
2022/10/12 04:03:26;;;;;;;;;;;;;;;3.48;100.00;101342.50;3056989;19;19922;-52
2022/10/12 04:04:30;;;;;;;;;;;;;;;3.49;100.00;101331.03;3057193;19;19923;-52
2022/10/12 04:05:32;;;;;;;;;;;;;;;3.49;100.00;101330.16;3057434;19;19967;-54
2022/10/12 04:06:37;;;;;;;;;;;;;;;3.52;100.00;101332.72;3056721;19;20522;-54
2022/10/12 04:07:39;;;;;;;;;;;;;;;3.53;100.00;101327.41;3057583;19;20011;-52
2022/10/12 04:08:43;;;;;;;;;;;;;;;3.55;100.00;101330.03;3057172;19;19930;-52
2022/10/12 04:09:51;;;;;;;;;;;;;;;3.55;100.00;101330.03;3057464;19;19927;-52
2022/10/12 04:10:56;;;;;;;;;;;;;;;3.58;100.00;101324.72;3056022;19;19922;-53
2022/10/12 04:12:00;;;;;;;;;;;;;;;3.58;100.00;101329.97;3056760;19;19950;-53
2022/10/12 04:13:02;;;;;;;;;;;;;;;3.59;100.00;101324.69;3057064;19;20243;-53
2022/10/12 04:14:07;;;;;;;;;;;;;;;3.58;100.00;101324.72;3057280;19;19926;-53
2022/10/12 04:15:09;;;;;;;;;;;;;;;3.58;100.00;101324.72;3056413;19;19923;-51
2022/10/12 04:16:13;;;;;;;;;;;;;;;3.60;100.00;101317.63;3057009;19;20274;-54
2022/10/12 04:17:15;;;;;;;;;;;;;;;3.59;100.00;101315.88;3056911;19;20334;-52
2022/10/12 04:18:20;;;;;;;;;;;;;;;3.58;100.00;101319.44;3056556;19;19923;-52
2022/10/12 04:19:21;;;;;;;;;;;;;;;3.59;100.00;101321.16;3056369;19;20389;-54
2022/10/12 04:20:27;;;;;;;;;;;;;;;3.58;100.00;101322.94;3058613;19;19995;-53
2022/10/12 04:21:31;;;;;;;;;;;;;;;3.58;100.00;101319.44;3056585;19;19942;-54
2022/10/12 04:22:33;;;;;;;;;;;;;;;3.58;100.00;101316.78;3056746;19;19918;-52
2022/10/12 04:23:38;;;;;;;;;;;;;;;3.57;100.00;101322.97;3057794;19;19919;-53
2022/10/12 04:24:40;;;;;;;;;;;;;;;3.58;100.00;101327.34;3056875;19;19939;-53
2022/10/12 04:25:44;;;;;;;;;;;;;;;3.57;100.00;101325.59;3057049;19;20542;-54
2022/10/12 04:26:46;;;;;;;;;;;;;;;3.56;100.00;101334.41;3057046;19;19927;-53
2022/10/12 04:27:51;;;;;;;;;;;;;;;3.55;100.00;101314.19;3057033;19;20373;-52
2022/10/12 04:28:52;;;;;;;;;;;;;;;3.53;100.00;101321.28;3057295;19;19922;-53
2022/10/12 04:29:57;;;;;;;;;;;;;;;3.54;100.00;101323.00;3057112;19;20294;-53
2022/10/12 04:30:59;;;;;;;;;;;;;;;3.54;100.00;101325.66;3058009;19;19914;-52
2022/10/12 04:32:03;;;;;;;;;;;;;;;3.50;100.00;101326.63;3055999;19;20333;-52
2022/10/12 04:33:12;;;;;;;;;;;;;;;3.54;100.00;101328.28;3056190;19;19923;-54
2022/10/12 04:34:16;;;;;;;;;;;;;;;3.53;100.00;101326.56;3057930;19;19919;-51
2022/10/12 04:35:18;;;;;;;;;;;;;;;3.55;100.00;101330.03;3053045;19;19919;-54
2022/10/12 04:36:22;;;;;;;;;;;;;;;3.53;100.00;101327.41;3057202;19;19915;-53
2022/10/12 04:37:25;;;;;;;;;;;;;;;3.55;100.00;101333.53;3056079;19;19930;-54
2022/10/12 04:38:30;;;;;;;;;;;;;;;3.56;100.00;101326.50;3057033;19;19923;-53
2022/10/12 04:39:31;;;;;;;;;;;;;;;3.58;100.00;101329.97;3057065;19;19926;-53
2022/10/12 04:40:36;;;;;;;;;;;;;;;3.59;100.00;101326.44;3055880;19;20058;-53
2022/10/12 04:41:38;;;;;;;;;;;;;;;3.59;100.00;101326.44;3057611;19;20034;-52
2022/10/12 04:42:42;;;;;;;;;;;;;;;3.61;100.00;101336.09;3056886;19;19954;-54
2022/10/12 04:43:44;;;;;;;;;;;;;;;3.61;100.00;101330.81;3056605;19;20282;-52
2022/10/12 04:44:49;;;;;;;;;;;;;;;3.61;100.00;101327.28;3056392;19;19923;-52
2022/10/12 04:45:54;;;;;;;;;;;;;;;3.61;100.00;101324.66;3055772;19;19926;-55
2022/10/12 04:46:59;;;;;;;;;;;;;;;3.61;100.00;101329.94;3057700;19;20312;-52
2022/10/12 04:48:01;;;;;;;;;;;;;;;3.62;100.00;101329.88;3056757;19;19940;-54
2022/10/12 04:49:05;;;;;;;;;;;;;;;3.63;100.00;101323.69;3056869;19;19919;-53
2022/10/12 04:50:07;;;;;;;;;;;;;;;3.65;100.00;101328.94;3056818;19;19915;-54
2022/10/12 04:51:13;;;;;;;;;;;;;;;3.67;100.00;101328.94;3056404;19;19923;-52
2022/10/12 04:52:15;;;;;;;;;;;;;;;3.66;100.00;101329.81;3055997;19;19936;-53
2022/10/12 04:53:19;;;;;;;;;;;;;;;3.65;100.00;101326.31;3056489;19;19919;-54
2022/10/12 04:54:22;;;;;;;;;;;;;;;3.67;100.00;101332.44;3056648;19;19951;-53
2022/10/12 04:55:26;;;;;;;;;;;;;;;3.58;100.00;101314.16;3056330;19;20338;-54
2022/10/12 04:56:28;;;;;;;;;;;;;;;3.68;100.00;101342.09;3056815;19;19926;-54
2022/10/12 04:57:32;;;;;;;;;;;;;;;3.68;100.00;101331.53;3056721;19;19918;-52
2022/10/12 04:58:34;;;;;;;;;;;;;;;3.71;100.00;101331.47;3056829;19;19994;-52
2022/10/12 04:59:38;;;;;;;;;;;;;;;3.72;100.00;101338.50;3056657;19;19974;-52
2022/10/12 05:00:40;;;;;;;;;;;;;;;3.71;100.00;101339.41;3057715;19;19927;-54
2022/10/12 05:01:45;;;;;;;;;;;;;;;3.71;100.00;101344.69;3058712;19;19919;-51
2022/10/12 05:02:47;;;;;;;;;;;;;;;3.70;100.00;101348.22;3057737;19;19926;-53
2022/10/12 05:03:51;;;;;;;;;;;;;;;3.68;100.00;101350.03;3056930;19;20003;-53
2022/10/12 05:04:53;;;;;;;;;;;;;;;3.66;100.00;101351.81;3056784;19;20330;-54
2022/10/12 05:05:57;;;;;;;;;;;;;;;3.66;100.00;101353.56;3057609;19;20540;-52
2022/10/12 05:06:59;;;;;;;;;;;;;;;3.64;100.00;101350.97;3056652;19;19990;-54
2022/10/12 05:08:04;;;;;;;;;;;;;;;3.63;100.00;101354.50;3056696;19;19926;-52
2022/10/12 05:09:06;;;;;;;;;;;;;;;3.63;100.00;101354.50;3056481;19;20288;-55
2022/10/12 05:10:10;;;;;;;;;;;;;;;3.63;100.00;101351.84;3056775;19;20250;-54
2022/10/12 05:11:12;;;;;;;;;;;;;;;3.62;100.00;101353.63;3056101;19;19942;-53
2022/10/12 05:12:17;;;;;;;;;;;;;;;3.63;100.00;101351.84;2991179;19;20369;-53
2022/10/12 05:13:18;;;;;;;;;;;;;;;3.64;100.00;101356.25;3056399;19;20014;-54
2022/10/12 05:14:23;;;;;;;;;;;;;;;3.65;100.00;101358.00;3056204;19;20429;-52
2022/10/12 05:15:25;;;;;;;;;;;;;;;3.65;100.00;101360.63;3057620;19;19927;-54
2022/10/12 05:16:29;;;;;;;;;;;;;;;3.66;100.00;101359.72;3056508;19;20321;-52
2022/10/12 05:17:31;;;;;;;;;;;;;;;3.68;100.00;101352.66;3056474;19;19922;-54
2022/10/12 05:18:35;;;;;;;;;;;;;;;3.70;100.00;101361.41;3056560;19;19930;-55
2022/10/12 05:19:37;;;;;;;;;;;;;;;3.72;100.00;101354.34;3055952;19;19918;-54
2022/10/12 05:20:41;;;;;;;;;;;;;;;3.74;100.00;101365.75;3055777;19;19923;-52
2022/10/12 05:21:43;;;;;;;;;;;;;;;3.76;100.00;101361.28;3055673;19;20022;-54
2022/10/12 05:22:48;;;;;;;;;;;;;;;3.78;100.00;101355.97;3057599;19;19940;-52
2022/10/12 05:23:50;;;;;;;;;;;;;;;3.73;100.00;101355.22;3057547;19;20569;-53
2022/10/12 05:24:54;;;;;;;;;;;;;;;3.84;100.00;101363.78;3058171;19;20011;-52
2022/10/12 05:25:56;;;;;;;;;;;;;;;3.85;100.00;101366.41;3057622;19;19922;-54
2022/10/12 05:27:01;;;;;;;;;;;;;;;3.87;100.00;101364.56;3058489;19;19940;-53
2022/10/12 05:28:03;;;;;;;;;;;;;;;3.91;100.00;101365.41;3056295;19;19926;-52
2022/10/12 05:29:08;;;;;;;;;;;;;;;3.94;100.00;101371.50;3055329;19;19919;-57
2022/10/12 05:30:10;;;;;;;;;;;;;;;3.97;100.00;101368.81;3055508;19;19931;-53
2022/10/12 05:31:14;;;;;;;;;;;;;;;3.99;100.00;101368.75;3055939;19;19923;-56
2022/10/12 05:32:20;;;;;;;;;;;;;;;4.03;100.00;101374.84;3053562;19;20196;-53